Gilboa, WV (26671)

10:58 AM EDT on August 30, 2015 (GMT -0400)
Summersville | | Change Station
CLOSE
Current Station
Personal Weather Station
Location: Summersville, WV
Elevation: 1932 ft
Nearby Weather Stations

Elev 1932 ft 38.30 °N, 80.84 °W | Updated 3 minutes ago

Partly Cloudy
Partly Cloudy
76.3 °F
Feels Like 78 °F
N
0.0
Wind Variable Wind from WNW

Today
High -- | Low -- °F
--% Chance of Precip.
Yesterday
High -- | Low -- °F
Precip. -- in
6:51 AM 7:56 PM
Full, 99% visible
Pressure 30.15 in
Visibility 10.0 miles
Clouds Few 15000 ft
Mostly Cloudy 20000 ft
Mostly Cloudy 25000 ft
Heat Index 78 °F
Dew Point 66 °F
Humidity 70%
Rainfall 0.00 in
Snow Depth Not available.
UV 3 out of 12
Pollen 8.70 out of 12
Air Quality Not available.
Flu Activity Not available.
METAR KCRW 301454Z 00000KT 10SM FEW150 BKN200 BKN250 25/19 A3017 RMK AO2 SLP208 T02500194 51006 $
Pressure 30.15 in
Visibility 10.0 miles
Clouds Few 15000 ft
Mostly Cloudy 20000 ft
Mostly Cloudy 25000 ft
Heat Index 78 °F
Dew Point 66 °F
Humidity 70%
Rainfall 0.00 in
Snow Depth Not available.
UV 3 out of 12
Pollen 8.70 out of 12
Air Quality Not available.
Flu Activity Not available.
METAR KCRW 301454Z 00000KT 10SM FEW150 BKN200 BKN250 25/19 A3017 RMK AO2 SLP208 T02500194 51006 $

10-Day Weather Forecast

×

Almanac

Astronomy

Aug. 30, 2015 Rise Set
Actual Time
Civil Twilight
Nautical Twilight
Astronomical Twilight
Moon
Length of Visible Light
Length of Day
Tomorrow will be .
, % of the Moon is Illuminated

Today's Extremes

State Highs State Lows

Community

WunderPhotos

Upload Photos

1,850,974 photos uploaded!

WunderBlogs® & News

Nearby

Air Quality

  Air Quality AQ Index Pollutant
Not available.

Snow Depth

Station Depth Elevation

Earthquake Activity

City Distance Mag. Time & Date
Minimum magnitude displayed is 2.5.

Coastal Water Temperatures

Place Temperature

Stations

Nearby Weather Stations

Station Location Temp. Windchill Dew Point Humidity Wind Precip. Elev Updated Type